createdAt,value
2023-03-11T00:00:40.990Z,17.40
2023-03-11T00:03:09.087Z,17.63
2023-03-11T00:05:38.531Z,18.13
2023-03-11T00:08:07.547Z,18.20
2023-03-11T00:10:46.200Z,17.83
2023-03-11T00:13:15.612Z,17.58
2023-03-11T00:15:44.592Z,19.00
2023-03-11T00:18:11.897Z,18.35
2023-03-11T00:20:41.300Z,19.38
2023-03-11T00:25:37.499Z,17.77
2023-03-11T00:28:07.572Z,17.70
2023-03-11T00:30:34.880Z,17.40
2023-03-11T00:33:02.503Z,18.45
2023-03-11T00:35:31.729Z,18.67
2023-03-11T00:38:01.755Z,19.73
2023-03-11T00:40:32.323Z,21.58
2023-03-11T00:43:00.133Z,20.58
2023-03-11T00:45:28.496Z,20.83
2023-03-11T00:47:55.994Z,22.15
2023-03-11T00:50:31.242Z,21.48
2023-03-11T00:52:58.748Z,22.15
2023-03-11T00:55:31.639Z,23.02
2023-03-11T00:58:01.020Z,21.20
2023-03-11T01:02:56.979Z,20.52
2023-03-11T01:05:28.159Z,19.70
2023-03-11T01:07:55.432Z,20.23
2023-03-11T01:10:22.783Z,19.55
2023-03-11T01:12:50.018Z,18.08
2023-03-11T01:15:29.971Z,18.30
2023-03-11T01:17:57.243Z,17.08
2023-03-11T01:20:24.528Z,15.30
2023-03-11T01:22:51.829Z,14.60
2023-03-11T01:25:20.696Z,13.20
2023-03-11T01:27:48.280Z,10.55
2023-03-11T01:30:19.514Z,8.98
2023-03-11T01:32:47.084Z,8.23
2023-03-11T01:35:16.637Z,7.57
2023-03-11T01:37:43.941Z,5.15
2023-03-11T01:40:33.057Z,4.63
2023-03-11T01:43:01.270Z,3.53
2023-03-11T01:45:49.426Z,3.47
2023-03-11T01:48:16.702Z,2.90
2023-03-11T01:50:47.077Z,3.22
2023-03-11T01:53:15.204Z,3.13
2023-03-11T01:55:43.210Z,3.15
2023-03-11T01:58:15.030Z,3.13
2023-03-11T02:00:43.214Z,3.28
2023-03-11T02:03:24.516Z,2.78
2023-03-11T02:05:52.576Z,3.38
2023-03-11T02:08:19.825Z,2.85
2023-03-11T02:10:47.707Z,3.80
2023-03-11T02:13:15.240Z,4.03
2023-03-11T02:15:42.521Z,4.00
2023-03-11T02:18:10.144Z,4.68
2023-03-11T02:20:54.281Z,5.35
2023-03-11T02:23:25.716Z,5.25
2023-03-11T02:26:15.657Z,4.82
2023-03-11T02:28:43.815Z,6.38
2023-03-11T02:31:11.358Z,7.43
2023-03-11T02:33:38.705Z,7.72
2023-03-11T02:36:06.607Z,8.32
2023-03-11T02:38:36.938Z,9.10
2023-03-11T02:41:05.576Z,8.45
2023-03-11T02:43:38.125Z,8.65
2023-03-11T02:46:07.632Z,8.45
2023-03-11T02:48:35.502Z,9.40
2023-03-11T02:51:03.416Z,8.95
2023-03-11T02:53:33.920Z,9.82
2023-03-11T02:56:01.152Z,9.68
2023-03-11T02:58:28.359Z,9.40
2023-03-11T03:00:55.728Z,9.30
2023-03-11T03:03:23.090Z,9.13
2023-03-11T03:05:50.343Z,9.02
2023-03-11T03:08:17.534Z,9.80
2023-03-11T03:10:44.889Z,9.55
2023-03-11T03:13:12.367Z,10.02
2023-03-11T03:15:39.623Z,9.73
2023-03-11T03:18:06.926Z,10.30
2023-03-11T03:20:34.200Z,10.25
2023-03-11T03:23:01.441Z,10.20
2023-03-11T03:25:28.794Z,9.98
2023-03-11T03:27:56.218Z,10.23
2023-03-11T03:30:23.446Z,10.07
2023-03-11T03:32:50.733Z,9.93
2023-03-11T03:35:18.007Z,10.20
2023-03-11T03:37:45.244Z,10.27
2023-03-11T03:40:13.587Z,10.65
2023-03-11T03:42:40.862Z,10.07
2023-03-11T03:45:09.206Z,10.82
2023-03-11T03:47:37.075Z,11.00
2023-03-11T03:50:07.080Z,10.30
2023-03-11T03:52:36.198Z,10.15
2023-03-11T03:55:04.810Z,9.75
2023-03-11T03:57:32.417Z,9.25
2023-03-11T03:59:59.682Z,8.13
2023-03-11T04:02:26.907Z,7.72
2023-03-11T04:04:54.183Z,6.90
2023-03-11T04:07:21.410Z,6.82
2023-03-11T04:09:48.601Z,6.45
2023-03-11T04:12:17.702Z,6.70
2023-03-11T04:14:45.279Z,5.60
2023-03-11T04:17:13.761Z,6.18
2023-03-11T04:19:41.499Z,6.57
2023-03-11T04:22:08.994Z,5.25
2023-03-11T04:24:36.169Z,6.32
2023-03-11T04:27:03.531Z,5.90
2023-03-11T04:29:30.789Z,6.40
2023-03-11T04:31:58.111Z,5.88
2023-03-11T04:34:25.402Z,6.30
2023-03-11T04:36:53.815Z,5.43
2023-03-11T04:39:21.453Z,6.40
2023-03-11T04:41:48.662Z,5.88
2023-03-11T04:44:15.877Z,5.55
2023-03-11T04:46:43.123Z,5.70
2023-03-11T04:49:10.424Z,6.28
2023-03-11T04:51:37.707Z,6.03
2023-03-11T04:54:05.279Z,6.25
2023-03-11T04:56:32.521Z,6.38
2023-03-11T04:58:59.765Z,5.40
2023-03-11T05:01:27.065Z,5.93
2023-03-11T05:04:01.242Z,5.75
2023-03-11T05:06:28.464Z,6.22
2023-03-11T05:08:55.747Z,5.85
2023-03-11T05:11:22.966Z,6.05
2023-03-11T05:13:50.104Z,5.88
2023-03-11T05:16:17.355Z,6.53
2023-03-11T05:18:44.657Z,5.88
2023-03-11T05:21:11.902Z,6.25
2023-03-11T05:23:39.165Z,6.38
2023-03-11T05:26:06.966Z,6.72
2023-03-11T05:28:34.219Z,6.47
2023-03-11T05:31:01.506Z,6.35
2023-03-11T05:33:34.707Z,6.93
2023-03-11T05:36:10.034Z,6.88
2023-03-11T05:38:37.726Z,6.70
2023-03-11T05:41:06.224Z,6.68
2023-03-11T05:43:33.423Z,8.57
2023-03-11T05:46:00.627Z,8.02
2023-03-11T05:48:27.807Z,7.75
2023-03-11T05:50:54.994Z,8.82
2023-03-11T05:53:22.233Z,9.43
2023-03-11T05:55:57.562Z,9.48
2023-03-11T05:58:24.905Z,9.60
2023-03-11T06:00:52.128Z,10.43
2023-03-11T06:03:19.479Z,10.23
2023-03-11T06:05:47.750Z,9.85
2023-03-11T06:08:15.317Z,10.55
2023-03-11T06:10:43.018Z,10.48
2023-03-11T06:13:10.555Z,10.82
2023-03-11T06:15:38.554Z,11.70
2023-03-11T06:18:05.763Z,10.88
2023-03-11T06:20:32.958Z,10.75
2023-03-11T06:23:00.163Z,11.15
2023-03-11T06:25:27.382Z,9.77
2023-03-11T06:27:54.571Z,10.25
2023-03-11T06:30:21.986Z,11.25
2023-03-11T06:32:49.493Z,10.60
2023-03-11T06:35:16.763Z,10.15
2023-03-11T06:37:43.959Z,9.88
2023-03-11T06:40:11.668Z,10.25
2023-03-11T06:42:38.856Z,10.68
2023-03-11T06:45:06.736Z,10.55
2023-03-11T06:47:33.963Z,9.60
2023-03-11T06:50:06.465Z,9.23
2023-03-11T06:52:34.025Z,8.88
2023-03-11T06:55:01.266Z,9.77
2023-03-11T06:57:29.448Z,8.98
2023-03-11T06:59:56.711Z,8.60
2023-03-11T07:02:23.986Z,9.10
2023-03-11T07:04:51.386Z,8.82
2023-03-11T07:07:18.645Z,9.50
2023-03-11T07:09:45.825Z,8.73
2023-03-11T07:12:14.759Z,8.45
2023-03-11T07:14:41.999Z,8.90
2023-03-11T07:17:09.219Z,9.65
2023-03-11T07:19:36.430Z,8.95
2023-03-11T07:22:03.639Z,9.38
2023-03-11T07:24:30.810Z,9.77
2023-03-11T07:26:57.988Z,10.27
2023-03-11T07:29:25.203Z,8.93
2023-03-11T07:31:52.441Z,9.20
2023-03-11T07:34:19.682Z,9.60
2023-03-11T07:36:46.886Z,9.93
2023-03-11T07:39:17.739Z,9.98
2023-03-11T07:41:45.573Z,9.90
2023-03-11T07:44:14.161Z,9.52
2023-03-11T07:46:42.005Z,10.15
2023-03-11T07:49:09.187Z,10.52
2023-03-11T07:51:37.329Z,10.32
2023-03-11T07:54:04.875Z,9.98
2023-03-11T07:56:34.292Z,8.75
2023-03-11T08:01:35.967Z,9.50
2023-03-11T08:04:08.095Z,9.93
2023-03-11T08:06:37.182Z,9.63
2023-03-11T08:09:07.580Z,9.90
2023-03-11T08:11:35.271Z,9.38
2023-03-11T08:14:02.672Z,10.25
2023-03-11T08:16:30.962Z,8.68
2023-03-11T08:18:58.187Z,8.15
2023-03-11T08:21:26.657Z,8.45
2023-03-11T08:23:56.358Z,8.03
2023-03-11T08:26:23.702Z,7.25
2023-03-11T08:28:51.121Z,7.60
2023-03-11T08:31:20.384Z,7.57
2023-03-11T08:33:49.938Z,6.95
2023-03-11T08:36:17.824Z,6.50
2023-03-11T08:38:45.099Z,7.65
2023-03-11T08:41:12.413Z,7.75
2023-03-11T08:43:39.753Z,8.65
2023-03-11T08:46:07.468Z,8.55
2023-03-11T08:48:36.280Z,8.68
2023-03-11T08:51:08.734Z,10.15
2023-03-11T08:53:37.728Z,9.80
2023-03-11T08:56:05.330Z,9.18
2023-03-11T08:58:32.526Z,8.93
2023-03-11T09:01:00.026Z,9.50
2023-03-11T09:03:27.277Z,10.63
2023-03-11T09:05:58.881Z,9.75
2023-03-11T09:08:26.502Z,10.70
2023-03-11T09:10:54.010Z,10.57
2023-03-11T09:13:21.453Z,9.90
2023-03-11T09:15:50.052Z,10.55
2023-03-11T09:18:17.922Z,9.18
2023-03-11T09:20:45.366Z,9.32
2023-03-11T09:23:15.287Z,9.77
2023-03-11T09:25:42.981Z,10.93
2023-03-11T09:28:10.362Z,9.93
2023-03-11T09:30:37.660Z,8.48
2023-03-11T09:33:04.949Z,9.20
2023-03-11T09:35:32.255Z,9.13
2023-03-11T09:37:59.528Z,10.25
2023-03-11T09:40:28.501Z,10.10
2023-03-11T09:43:31.290Z,10.05
2023-03-11T09:46:16.728Z,8.80
2023-03-11T09:48:49.202Z,10.10
2023-03-11T09:51:27.752Z,9.13
2023-03-11T09:54:03.328Z,10.32
2023-03-11T09:56:31.707Z,10.43
2023-03-11T09:59:07.213Z,10.23
2023-03-11T10:01:37.415Z,10.52
2023-03-11T10:04:44.764Z,10.18
2023-03-11T10:07:22.137Z,10.63
2023-03-11T10:09:56.951Z,10.65
2023-03-11T10:12:38.369Z,11.15
2023-03-11T10:15:19.559Z,10.30
2023-03-11T10:17:58.976Z,11.07
2023-03-11T10:20:38.695Z,10.90
2023-03-11T10:23:14.815Z,11.05
2023-03-11T10:26:12.433Z,10.77
2023-03-11T10:28:54.653Z,11.00
2023-03-11T10:31:30.702Z,11.80
2023-03-11T10:34:05.201Z,11.98
2023-03-11T10:36:57.461Z,12.48
2023-03-11T10:39:25.175Z,10.60
2023-03-11T10:42:00.862Z,10.90
2023-03-11T10:44:44.784Z,10.40
2023-03-11T10:47:20.191Z,10.70
2023-03-11T10:49:47.719Z,12.63
2023-03-11T10:52:15.249Z,11.32
2023-03-11T10:55:02.776Z,10.98
2023-03-11T10:57:35.221Z,9.93
2023-03-11T11:00:12.593Z,10.65
2023-03-11T11:02:48.788Z,10.77
2023-03-11T11:05:20.312Z,10.45
2023-03-11T11:07:55.202Z,9.93
2023-03-11T11:10:23.785Z,12.48
2023-03-11T11:13:04.142Z,10.05
2023-03-11T11:15:40.146Z,10.88
2023-03-11T11:18:16.356Z,10.57
2023-03-11T11:20:58.510Z,10.48
2023-03-11T11:23:49.918Z,10.10
2023-03-11T11:26:27.075Z,10.07
2023-03-11T11:29:12.592Z,10.00
2023-03-11T11:31:46.669Z,9.65
2023-03-11T11:34:30.475Z,9.93
2023-03-11T11:36:59.915Z,9.98
2023-03-11T11:39:29.003Z,9.30
2023-03-11T11:42:01.524Z,9.98
2023-03-11T11:44:35.562Z,9.63
2023-03-11T11:47:29.001Z,9.27
2023-03-11T11:50:01.588Z,8.93
2023-03-11T11:52:33.116Z,10.02
2023-03-11T11:55:23.435Z,10.15
2023-03-11T11:57:52.077Z,10.13
2023-03-11T12:00:26.909Z,11.20
2023-03-11T12:03:13.874Z,10.88
2023-03-11T12:06:02.004Z,10.90
2023-03-11T12:08:47.497Z,10.45
2023-03-11T12:11:30.435Z,8.38
2023-03-11T12:14:05.613Z,9.65
2023-03-11T12:16:57.171Z,9.90
2023-03-11T12:19:59.920Z,9.02
2023-03-11T12:22:49.088Z,10.13
2023-03-11T12:25:23.243Z,8.85
2023-03-11T12:27:53.546Z,7.65
2023-03-11T12:30:43.980Z,9.77
2023-03-11T12:33:41.305Z,8.13
2023-03-11T12:36:49.818Z,7.13
2023-03-11T12:39:30.924Z,10.80
2023-03-11T12:42:25.633Z,8.27
2023-03-11T12:45:44.538Z,9.10
2023-03-11T12:48:33.505Z,9.57
2023-03-11T12:51:01.239Z,9.63
2023-03-11T12:53:49.744Z,10.15
2023-03-11T12:56:35.377Z,10.23
2023-03-11T12:59:24.774Z,8.60
2023-03-11T13:02:03.915Z,8.90
2023-03-11T13:04:58.281Z,9.25
2023-03-11T13:07:48.474Z,8.85
2023-03-11T13:10:37.614Z,9.45
2023-03-11T13:13:25.060Z,8.30
2023-03-11T13:15:53.346Z,8.10
2023-03-11T13:18:28.804Z,9.27
2023-03-11T13:20:58.182Z,8.95
2023-03-11T13:26:11.959Z,9.95
2023-03-11T13:29:00.254Z,9.82
2023-03-11T13:31:57.313Z,9.85
2023-03-11T13:34:45.955Z,9.75
2023-03-11T13:37:25.318Z,9.90
2023-03-11T13:40:14.129Z,10.25
2023-03-11T13:42:56.238Z,8.50
2023-03-11T13:45:27.367Z,8.30
2023-03-11T13:47:58.763Z,9.50
2023-03-11T13:50:37.059Z,8.95
2023-03-11T13:53:09.702Z,9.05
2023-03-11T13:55:43.302Z,8.95
2023-03-11T13:58:25.299Z,8.50
2023-03-11T14:01:00.761Z,8.30
2023-03-11T14:03:32.624Z,8.18
2023-03-11T14:06:06.823Z,7.88
2023-03-11T14:08:38.420Z,8.32
2023-03-11T14:11:08.252Z,8.15
2023-03-11T14:13:39.933Z,7.40
2023-03-11T14:16:10.869Z,6.70
2023-03-11T14:18:46.602Z,7.25
2023-03-11T14:21:33.587Z,6.45
2023-03-11T14:24:01.156Z,5.38
2023-03-11T14:26:35.262Z,5.65
2023-03-11T14:29:09.583Z,5.88
2023-03-11T14:31:44.058Z,6.57
2023-03-11T14:34:11.340Z,6.57
2023-03-11T14:36:48.474Z,6.20
2023-03-11T14:39:29.778Z,5.60
2023-03-11T14:42:23.819Z,4.93
2023-03-11T14:45:05.265Z,4.53
2023-03-11T14:47:40.765Z,5.38
2023-03-11T14:50:14.022Z,4.15
2023-03-11T14:52:58.874Z,5.10
2023-03-11T14:55:40.825Z,3.97
2023-03-11T14:58:36.441Z,4.53
2023-03-11T15:01:28.228Z,4.50
2023-03-11T15:04:00.026Z,4.72
2023-03-11T15:06:29.028Z,5.28
2023-03-11T15:09:00.032Z,3.80
2023-03-11T15:11:28.643Z,3.95
2023-03-11T15:14:34.293Z,3.85
2023-03-11T15:17:33.950Z,3.42
2023-03-11T15:20:25.471Z,3.33
2023-03-11T15:23:00.705Z,4.00
2023-03-11T15:25:30.448Z,3.30
2023-03-11T15:28:15.232Z,3.20
2023-03-11T15:30:42.637Z,3.35
2023-03-11T15:33:30.144Z,2.67
2023-03-11T15:35:57.492Z,2.55
2023-03-11T15:38:28.415Z,2.75
2023-03-11T15:41:03.787Z,2.20
2023-03-11T15:43:35.275Z,2.20
2023-03-11T15:46:03.972Z,2.90
2023-03-11T15:48:31.536Z,2.05
2023-03-11T15:51:00.249Z,2.10
2023-03-11T15:53:28.940Z,3.00
2023-03-11T15:56:06.566Z,2.53
2023-03-11T15:58:37.763Z,3.17
2023-03-11T16:01:05.335Z,2.95
2023-03-11T16:03:32.715Z,3.00
2023-03-11T16:06:00.195Z,2.72
2023-03-11T16:08:32.883Z,3.00
2023-03-11T16:11:00.137Z,3.17
2023-03-11T16:13:27.460Z,3.15
2023-03-11T16:15:58.151Z,3.60
2023-03-11T16:18:25.405Z,3.67
2023-03-11T16:20:53.628Z,3.53
2023-03-11T16:23:25.946Z,3.65
2023-03-11T16:26:00.223Z,3.38
2023-03-11T16:28:27.571Z,3.35
2023-03-11T16:30:54.979Z,3.10
2023-03-11T16:33:22.231Z,3.55
2023-03-11T16:35:49.578Z,4.13
2023-03-11T16:38:19.359Z,3.88
2023-03-11T16:40:47.644Z,3.20
2023-03-11T16:43:19.184Z,3.60
2023-03-11T16:45:46.377Z,3.75
2023-03-11T16:48:13.603Z,3.92
2023-03-11T16:50:41.057Z,3.80
2023-03-11T16:53:08.279Z,3.90
2023-03-11T16:55:35.562Z,4.30
2023-03-11T16:58:02.817Z,4.03
2023-03-11T17:00:30.066Z,4.25
2023-03-11T17:02:57.449Z,3.92
2023-03-11T17:05:24.748Z,4.20
2023-03-11T17:08:00.119Z,4.05
2023-03-11T17:10:28.485Z,3.70
2023-03-11T17:12:55.867Z,3.63
2023-03-11T17:15:23.081Z,3.67
2023-03-11T17:17:51.700Z,3.10
2023-03-11T17:20:21.517Z,3.75
2023-03-11T17:22:49.081Z,4.10
2023-03-11T17:25:16.716Z,3.40
2023-03-11T17:27:44.063Z,3.55
2023-03-11T17:30:16.098Z,3.50
2023-03-11T17:32:46.921Z,3.72
2023-03-11T17:35:14.668Z,3.65
2023-03-11T17:37:41.965Z,4.85
2023-03-11T17:40:09.728Z,4.63
2023-03-11T17:42:39.606Z,4.70
2023-03-11T17:45:07.614Z,4.68
2023-03-11T17:47:36.732Z,3.58
2023-03-11T17:50:05.728Z,4.50
2023-03-11T17:52:33.100Z,4.03
2023-03-11T17:55:00.421Z,4.07
2023-03-11T17:57:45.050Z,4.40
2023-03-11T18:00:18.028Z,3.67
2023-03-11T18:02:45.427Z,4.55
2023-03-11T18:05:12.667Z,4.03
2023-03-11T18:07:40.173Z,4.57
2023-03-11T18:10:09.408Z,4.30
2023-03-11T18:12:36.829Z,4.88
2023-03-11T18:15:08.195Z,4.03
2023-03-11T18:17:36.270Z,5.15
2023-03-11T18:20:04.794Z,5.47
2023-03-11T18:22:35.127Z,5.13
2023-03-11T18:25:02.880Z,4.35
2023-03-11T18:27:30.146Z,4.70
2023-03-11T18:29:57.438Z,5.45
2023-03-11T18:32:24.782Z,5.72
2023-03-11T18:34:52.222Z,5.40
2023-03-11T18:37:19.502Z,4.53
2023-03-11T18:39:46.730Z,3.78
2023-03-11T18:42:15.937Z,4.53
2023-03-11T18:44:43.140Z,3.90
2023-03-11T18:47:10.614Z,3.97
2023-03-11T18:49:52.688Z,3.17
2023-03-11T18:52:19.961Z,3.70
2023-03-11T18:54:50.157Z,4.22
2023-03-11T18:57:17.715Z,3.65
2023-03-11T18:59:45.056Z,2.90
2023-03-11T19:02:40.791Z,2.92
2023-03-11T19:05:10.759Z,4.00
2023-03-11T19:07:38.076Z,3.50
2023-03-11T19:10:05.814Z,3.10
2023-03-11T19:12:37.082Z,3.20
2023-03-11T19:15:04.699Z,2.92
2023-03-11T19:17:31.957Z,3.40
2023-03-11T19:19:59.266Z,3.00
2023-03-11T19:22:29.287Z,2.80
2023-03-11T19:24:56.560Z,3.28
2023-03-11T19:27:23.799Z,3.60
2023-03-11T19:29:51.099Z,2.95
2023-03-11T19:32:18.440Z,3.58
2023-03-11T19:34:46.415Z,3.45
2023-03-11T19:37:13.648Z,3.30
2023-03-11T19:39:40.918Z,3.03
2023-03-11T19:42:08.170Z,2.97
2023-03-11T19:44:35.537Z,3.10
2023-03-11T19:47:02.770Z,2.97
2023-03-11T19:49:30.057Z,3.28
2023-03-11T19:51:57.295Z,2.72
2023-03-11T19:54:24.532Z,3.20
2023-03-11T19:56:51.778Z,2.42
2023-03-11T19:59:19.068Z,3.05
2023-03-11T20:01:46.309Z,3.00
2023-03-11T20:04:15.421Z,2.45
2023-03-11T20:09:11.331Z,2.60
2023-03-11T20:11:40.131Z,2.80
2023-03-11T20:14:08.259Z,2.75
2023-03-11T20:16:35.767Z,2.63
2023-03-11T20:19:03.356Z,3.10
2023-03-11T20:21:32.675Z,2.38
2023-03-11T20:26:27.126Z,2.67
2023-03-11T20:28:57.766Z,2.75
2023-03-11T20:31:26.704Z,2.78
2023-03-11T20:33:54.718Z,2.63
2023-03-11T20:36:24.764Z,2.92
2023-03-11T20:38:55.348Z,2.55
2023-03-11T20:41:23.517Z,2.83
2023-03-11T20:43:57.772Z,2.95
2023-03-11T20:46:25.249Z,3.15
2023-03-11T20:48:52.580Z,3.00
2023-03-11T20:51:20.614Z,2.65
2023-03-11T20:53:49.370Z,2.83
2023-03-11T20:56:22.935Z,2.80
2023-03-11T20:58:52.007Z,2.97
2023-03-11T21:01:22.268Z,2.78
2023-03-11T21:03:50.152Z,2.60
2023-03-11T21:06:23.228Z,2.90
2023-03-11T21:08:52.831Z,2.75
2023-03-11T21:11:20.183Z,2.88
2023-03-11T21:13:50.138Z,2.60
2023-03-11T21:16:17.542Z,2.00
2023-03-11T21:18:47.126Z,2.80
2023-03-11T21:21:18.207Z,2.40
2023-03-11T21:23:46.041Z,2.08
2023-03-11T21:26:14.546Z,2.70
2023-03-11T21:28:46.320Z,2.37
2023-03-11T21:31:19.014Z,2.20
2023-03-11T21:33:47.302Z,2.05
2023-03-11T21:36:15.593Z,2.08
2023-03-11T21:38:43.163Z,2.70
2023-03-11T21:41:13.261Z,2.10
2023-03-11T21:43:44.563Z,2.25
2023-03-11T21:46:15.403Z,2.10
2023-03-11T21:48:43.164Z,1.67
2023-03-11T21:51:10.540Z,1.90
2023-03-11T21:53:38.241Z,2.03
2023-03-11T21:56:06.240Z,2.03
2023-03-11T21:58:35.025Z,1.83
2023-03-11T22:01:03.900Z,1.80
2023-03-11T22:03:35.321Z,1.80
2023-03-11T22:06:06.014Z,1.48
2023-03-11T22:08:33.557Z,1.73
2023-03-11T22:11:01.342Z,2.70
2023-03-11T22:13:29.083Z,2.30
2023-03-11T22:16:01.979Z,1.35
2023-03-11T22:18:29.305Z,1.73
2023-03-11T22:20:59.055Z,1.60
2023-03-11T22:23:26.819Z,1.88
2023-03-11T22:25:54.129Z,2.20
2023-03-11T22:28:24.914Z,1.80
2023-03-11T22:30:52.196Z,1.73
2023-03-11T22:33:19.421Z,1.60
2023-03-11T22:35:54.311Z,1.92
2023-03-11T22:38:22.300Z,1.73
2023-03-11T22:40:49.941Z,1.80
2023-03-11T22:43:17.193Z,1.70
2023-03-11T22:45:45.697Z,2.63
2023-03-11T22:48:13.081Z,1.98
2023-03-11T22:50:44.578Z,2.58
2023-03-11T22:53:12.859Z,2.92
2023-03-11T22:55:44.693Z,9.32
2023-03-11T22:58:12.155Z,6.65
2023-03-11T23:00:39.723Z,2.75
2023-03-11T23:03:07.526Z,1.83
2023-03-11T23:05:42.001Z,1.80
2023-03-11T23:08:14.773Z,1.85
2023-03-11T23:10:46.609Z,1.95
2023-03-11T23:13:14.046Z,2.22
2023-03-11T23:15:42.815Z,2.05
2023-03-11T23:18:10.139Z,2.63
2023-03-11T23:20:42.485Z,1.88
2023-03-11T23:23:10.905Z,2.42
2023-03-11T23:25:39.637Z,2.30
2023-03-11T23:28:06.965Z,1.92
2023-03-11T23:30:34.525Z,2.03
2023-03-11T23:33:02.991Z,1.77
2023-03-11T23:35:30.866Z,2.33
2023-03-11T23:37:58.118Z,2.38
2023-03-11T23:40:25.410Z,1.95
2023-03-11T23:42:52.758Z,2.00
2023-03-11T23:45:20.126Z,2.40
2023-03-11T23:47:47.379Z,5.13
2023-03-11T23:50:15.811Z,2.13
2023-03-11T23:52:43.581Z,1.90
2023-03-11T23:55:11.169Z,2.20
2023-03-11T23:57:38.569Z,1.95
